sensor_id;sensor_type;location;lat;lon;timestamp;P1;durP1;ratioP1;P2;durP2;ratioP2
59998;SDS011;45859;51.378;6.736;2023-02-28T00:00:51;9.07;;;4.67;;
59998;SDS011;45859;51.378;6.736;2023-02-28T00:03:16;6.07;;;4.10;;
59998;SDS011;45859;51.378;6.736;2023-02-28T00:05:42;8.70;;;4.07;;
59998;SDS011;45859;51.378;6.736;2023-02-28T00:08:08;6.47;;;3.63;;
59998;SDS011;45859;51.378;6.736;2023-02-28T00:10:34;5.77;;;3.10;;
59998;SDS011;45859;51.378;6.736;2023-02-28T00:13:05;6.40;;;3.93;;
59998;SDS011;45859;51.378;6.736;2023-02-28T00:17:57;9.33;;;4.23;;
59998;SDS011;45859;51.378;6.736;2023-02-28T00:20:23;8.80;;;4.57;;
59998;SDS011;45859;51.378;6.736;2023-02-28T00:22:50;4.93;;;3.30;;
59998;SDS011;45859;51.378;6.736;2023-02-28T00:25:21;8.17;;;4.40;;
59998;SDS011;45859;51.378;6.736;2023-02-28T00:27:49;8.67;;;3.83;;
59998;SDS011;45859;51.378;6.736;2023-02-28T00:30:16;7.33;;;4.20;;
59998;SDS011;45859;51.378;6.736;2023-02-28T00:32:43;10.87;;;4.10;;
59998;SDS011;45859;51.378;6.736;2023-02-28T00:35:09;9.67;;;4.67;;
59998;SDS011;45859;51.378;6.736;2023-02-28T00:37:36;10.73;;;4.20;;
59998;SDS011;45859;51.378;6.736;2023-02-28T00:40:02;6.80;;;3.67;;
59998;SDS011;45859;51.378;6.736;2023-02-28T00:42:32;12.50;;;3.92;;
59998;SDS011;45859;51.378;6.736;2023-02-28T00:44:58;6.53;;;3.70;;
59998;SDS011;45859;51.378;6.736;2023-02-28T00:47:24;8.33;;;4.30;;
59998;SDS011;45859;51.378;6.736;2023-02-28T00:49:50;12.27;;;4.37;;
59998;SDS011;45859;51.378;6.736;2023-02-28T00:52:15;6.83;;;3.83;;
59998;SDS011;45859;51.378;6.736;2023-02-28T00:54:41;6.57;;;3.50;;
59998;SDS011;45859;51.378;6.736;2023-02-28T00:57:07;6.57;;;3.70;;
59998;SDS011;45859;51.378;6.736;2023-02-28T00:59:32;8.63;;;4.20;;
59998;SDS011;45859;51.378;6.736;2023-02-28T01:01:58;8.33;;;3.63;;
59998;SDS011;45859;51.378;6.736;2023-02-28T01:04:24;7.07;;;3.23;;
59998;SDS011;45859;51.378;6.736;2023-02-28T01:06:49;8.17;;;3.57;;
59998;SDS011;45859;51.378;6.736;2023-02-28T01:09:15;9.97;;;4.47;;
59998;SDS011;45859;51.378;6.736;2023-02-28T01:11:41;6.33;;;3.33;;
59998;SDS011;45859;51.378;6.736;2023-02-28T01:14:10;8.67;;;3.63;;
59998;SDS011;45859;51.378;6.736;2023-02-28T01:16:38;8.03;;;3.93;;
59998;SDS011;45859;51.378;6.736;2023-02-28T01:19:03;7.20;;;3.87;;
59998;SDS011;45859;51.378;6.736;2023-02-28T01:21:29;8.90;;;4.00;;
59998;SDS011;45859;51.378;6.736;2023-02-28T01:23:56;10.40;;;4.30;;
59998;SDS011;45859;51.378;6.736;2023-02-28T01:26:22;6.07;;;4.17;;
59998;SDS011;45859;51.378;6.736;2023-02-28T01:28:49;5.37;;;3.60;;
59998;SDS011;45859;51.378;6.736;2023-02-28T01:31:17;6.17;;;3.87;;
59998;SDS011;45859;51.378;6.736;2023-02-28T01:33:43;10.43;;;3.57;;
59998;SDS011;45859;51.378;6.736;2023-02-28T01:36:10;8.43;;;3.17;;
59998;SDS011;45859;51.378;6.736;2023-02-28T01:38:37;7.67;;;3.43;;
59998;SDS011;45859;51.378;6.736;2023-02-28T01:41:04;5.67;;;3.50;;
59998;SDS011;45859;51.378;6.736;2023-02-28T01:43:32;6.83;;;3.93;;
59998;SDS011;45859;51.378;6.736;2023-02-28T01:46:07;6.13;;;3.20;;
59998;SDS011;45859;51.378;6.736;2023-02-28T01:48:34;9.07;;;3.93;;
59998;SDS011;45859;51.378;6.736;2023-02-28T01:51:05;8.07;;;3.60;;
59998;SDS011;45859;51.378;6.736;2023-02-28T01:53:38;11.63;;;4.43;;
59998;SDS011;45859;51.378;6.736;2023-02-28T01:56:09;6.47;;;3.60;;
59998;SDS011;45859;51.378;6.736;2023-02-28T01:58:38;4.88;;;3.13;;
59998;SDS011;45859;51.378;6.736;2023-02-28T02:01:05;6.10;;;2.73;;
59998;SDS011;45859;51.378;6.736;2023-02-28T02:03:30;5.13;;;2.83;;
59998;SDS011;45859;51.378;6.736;2023-02-28T02:05:56;6.13;;;3.53;;
59998;SDS011;45859;51.378;6.736;2023-02-28T02:08:23;5.90;;;3.03;;
59998;SDS011;45859;51.378;6.736;2023-02-28T02:10:52;4.27;;;2.60;;
59998;SDS011;45859;51.378;6.736;2023-02-28T02:13:34;5.65;;;3.53;;
59998;SDS011;45859;51.378;6.736;2023-02-28T02:27:16;8.40;;;3.63;;
59998;SDS011;45859;51.378;6.736;2023-02-28T02:38:35;5.30;;;2.40;;
59998;SDS011;45859;51.378;6.736;2023-02-28T02:43:44;5.30;;;2.93;;
59998;SDS011;45859;51.378;6.736;2023-02-28T02:46:37;6.27;;;3.37;;
59998;SDS011;45859;51.378;6.736;2023-02-28T02:49:08;5.03;;;2.97;;
59998;SDS011;45859;51.378;6.736;2023-02-28T02:51:38;5.67;;;2.80;;
59998;SDS011;45859;51.378;6.736;2023-02-28T02:54:08;7.10;;;3.67;;
59998;SDS011;45859;51.378;6.736;2023-02-28T02:56:36;6.27;;;2.67;;
59998;SDS011;45859;51.378;6.736;2023-02-28T02:59:07;5.53;;;2.93;;
59998;SDS011;45859;51.378;6.736;2023-02-28T03:01:36;7.57;;;3.07;;
59998;SDS011;45859;51.378;6.736;2023-02-28T03:04:04;5.20;;;2.63;;
59998;SDS011;45859;51.378;6.736;2023-02-28T03:06:33;3.92;;;2.85;;
59998;SDS011;45859;51.378;6.736;2023-02-28T03:09:00;4.07;;;2.40;;
59998;SDS011;45859;51.378;6.736;2023-02-28T03:11:26;4.63;;;2.67;;
59998;SDS011;45859;51.378;6.736;2023-02-28T03:14:08;4.60;;;2.67;;
59998;SDS011;45859;51.378;6.736;2023-02-28T03:24:50;3.67;;;2.20;;
59998;SDS011;45859;51.378;6.736;2023-02-28T03:27:30;4.20;;;2.77;;
59998;SDS011;45859;51.378;6.736;2023-02-28T03:32:38;7.23;;;2.77;;
59998;SDS011;45859;51.378;6.736;2023-02-28T03:35:22;3.87;;;2.00;;
59998;SDS011;45859;51.378;6.736;2023-02-28T03:37:52;3.47;;;1.80;;
59998;SDS011;45859;51.378;6.736;2023-02-28T03:40:23;5.93;;;2.60;;
59998;SDS011;45859;51.378;6.736;2023-02-28T03:45:24;4.97;;;2.35;;
59998;SDS011;45859;51.378;6.736;2023-02-28T03:47:54;9.13;;;1.93;;
59998;SDS011;45859;51.378;6.736;2023-02-28T03:50:27;5.17;;;2.50;;
59998;SDS011;45859;51.378;6.736;2023-02-28T03:56:18;3.07;;;1.87;;
59998;SDS011;45859;51.378;6.736;2023-02-28T03:58:53;4.50;;;2.30;;
59998;SDS011;45859;51.378;6.736;2023-02-28T04:01:45;3.37;;;2.07;;
59998;SDS011;45859;51.378;6.736;2023-02-28T04:04:11;2.63;;;2.20;;
59998;SDS011;45859;51.378;6.736;2023-02-28T04:06:39;2.93;;;1.73;;
59998;SDS011;45859;51.378;6.736;2023-02-28T04:09:06;4.30;;;2.00;;
59998;SDS011;45859;51.378;6.736;2023-02-28T04:11:37;2.77;;;1.67;;
59998;SDS011;45859;51.378;6.736;2023-02-28T04:14:03;3.63;;;1.75;;
59998;SDS011;45859;51.378;6.736;2023-02-28T04:16:30;4.70;;;2.07;;
59998;SDS011;45859;51.378;6.736;2023-02-28T04:18:57;3.50;;;2.20;;
59998;SDS011;45859;51.378;6.736;2023-02-28T04:21:32;3.93;;;2.33;;
59998;SDS011;45859;51.378;6.736;2023-02-28T04:24:04;6.57;;;2.30;;
59998;SDS011;45859;51.378;6.736;2023-02-28T04:26:31;5.03;;;1.87;;
59998;SDS011;45859;51.378;6.736;2023-02-28T04:29:02;3.47;;;2.83;;
59998;SDS011;45859;51.378;6.736;2023-02-28T04:31:29;4.27;;;2.20;;
59998;SDS011;45859;51.378;6.736;2023-02-28T04:33:55;4.90;;;2.77;;
59998;SDS011;45859;51.378;6.736;2023-02-28T04:36:21;4.97;;;2.20;;
59998;SDS011;45859;51.378;6.736;2023-02-28T04:38:48;4.90;;;2.20;;
59998;SDS011;45859;51.378;6.736;2023-02-28T04:41:15;3.50;;;1.83;;
59998;SDS011;45859;51.378;6.736;2023-02-28T04:43:41;3.60;;;2.13;;
59998;SDS011;45859;51.378;6.736;2023-02-28T04:46:08;5.10;;;2.27;;
59998;SDS011;45859;51.378;6.736;2023-02-28T04:48:35;5.37;;;2.67;;
59998;SDS011;45859;51.378;6.736;2023-02-28T04:51:06;5.63;;;2.30;;
59998;SDS011;45859;51.378;6.736;2023-02-28T04:53:35;5.73;;;2.57;;
59998;SDS011;45859;51.378;6.736;2023-02-28T04:56:02;5.00;;;2.90;;
59998;SDS011;45859;51.378;6.736;2023-02-28T04:58:28;5.13;;;2.67;;
59998;SDS011;45859;51.378;6.736;2023-02-28T05:00:56;5.33;;;2.93;;
59998;SDS011;45859;51.378;6.736;2023-02-28T05:03:35;4.97;;;2.97;;
59998;SDS011;45859;51.378;6.736;2023-02-28T05:06:01;4.53;;;2.83;;
59998;SDS011;45859;51.378;6.736;2023-02-28T05:08:26;4.37;;;2.60;;
59998;SDS011;45859;51.378;6.736;2023-02-28T05:10:54;4.50;;;2.67;;
59998;SDS011;45859;51.378;6.736;2023-02-28T05:13:20;4.70;;;2.50;;
59998;SDS011;45859;51.378;6.736;2023-02-28T05:15:46;6.07;;;2.13;;
59998;SDS011;45859;51.378;6.736;2023-02-28T05:18:12;4.57;;;2.83;;
59998;SDS011;45859;51.378;6.736;2023-02-28T05:20:37;3.53;;;2.40;;
59998;SDS011;45859;51.378;6.736;2023-02-28T05:23:03;2.93;;;1.73;;
59998;SDS011;45859;51.378;6.736;2023-02-28T05:25:29;5.53;;;2.63;;
59998;SDS011;45859;51.378;6.736;2023-02-28T05:27:54;4.13;;;1.60;;
59998;SDS011;45859;51.378;6.736;2023-02-28T05:30:20;7.20;;;2.57;;
59998;SDS011;45859;51.378;6.736;2023-02-28T05:32:49;11.73;;;2.37;;
59998;SDS011;45859;51.378;6.736;2023-02-28T05:35:15;8.45;;;2.15;;
59998;SDS011;45859;51.378;6.736;2023-02-28T05:37:41;5.90;;;2.40;;
59998;SDS011;45859;51.378;6.736;2023-02-28T05:40:07;4.20;;;2.70;;
59998;SDS011;45859;51.378;6.736;2023-02-28T05:42:36;3.63;;;1.97;;
59998;SDS011;45859;51.378;6.736;2023-02-28T05:45:03;3.77;;;2.33;;
59998;SDS011;45859;51.378;6.736;2023-02-28T05:47:29;5.60;;;1.63;;
59998;SDS011;45859;51.378;6.736;2023-02-28T05:49:55;6.00;;;2.33;;
59998;SDS011;45859;51.378;6.736;2023-02-28T05:52:21;6.17;;;2.47;;
59998;SDS011;45859;51.378;6.736;2023-02-28T05:54:47;5.97;;;2.10;;
59998;SDS011;45859;51.378;6.736;2023-02-28T05:57:13;5.63;;;2.47;;
59998;SDS011;45859;51.378;6.736;2023-02-28T05:59:38;3.37;;;1.80;;
59998;SDS011;45859;51.378;6.736;2023-02-28T06:02:05;5.80;;;2.83;;
59998;SDS011;45859;51.378;6.736;2023-02-28T06:04:35;4.97;;;3.10;;
59998;SDS011;45859;51.378;6.736;2023-02-28T06:07:01;3.43;;;1.80;;
59998;SDS011;45859;51.378;6.736;2023-02-28T06:09:27;3.57;;;1.70;;
59998;SDS011;45859;51.378;6.736;2023-02-28T06:11:54;3.43;;;1.50;;
59998;SDS011;45859;51.378;6.736;2023-02-28T06:14:20;4.13;;;2.17;;
59998;SDS011;45859;51.378;6.736;2023-02-28T06:16:46;3.03;;;1.90;;
59998;SDS011;45859;51.378;6.736;2023-02-28T06:19:12;2.97;;;1.90;;
59998;SDS011;45859;51.378;6.736;2023-02-28T06:21:38;2.07;;;1.53;;
59998;SDS011;45859;51.378;6.736;2023-02-28T06:24:04;2.80;;;1.47;;
59998;SDS011;45859;51.378;6.736;2023-02-28T06:26:30;10.27;;;2.97;;
59998;SDS011;45859;51.378;6.736;2023-02-28T06:28:57;4.93;;;2.47;;
59998;SDS011;45859;51.378;6.736;2023-02-28T06:31:22;3.00;;;1.80;;
59998;SDS011;45859;51.378;6.736;2023-02-28T06:33:50;6.47;;;1.70;;
59998;SDS011;45859;51.378;6.736;2023-02-28T06:36:17;3.87;;;1.87;;
59998;SDS011;45859;51.378;6.736;2023-02-28T06:38:43;3.63;;;1.60;;
59998;SDS011;45859;51.378;6.736;2023-02-28T06:41:09;4.20;;;2.13;;
59998;SDS011;45859;51.378;6.736;2023-02-28T06:43:37;5.50;;;2.13;;
59998;SDS011;45859;51.378;6.736;2023-02-28T06:46:06;2.75;;;1.90;;
59998;SDS011;45859;51.378;6.736;2023-02-28T06:48:33;6.67;;;2.27;;
59998;SDS011;45859;51.378;6.736;2023-02-28T06:51:04;6.10;;;2.40;;
59998;SDS011;45859;51.378;6.736;2023-02-28T06:53:35;3.97;;;2.03;;
59998;SDS011;45859;51.378;6.736;2023-02-28T06:56:05;6.80;;;2.07;;
59998;SDS011;45859;51.378;6.736;2023-02-28T06:58:32;3.40;;;2.17;;
59998;SDS011;45859;51.378;6.736;2023-02-28T07:00:58;3.33;;;1.80;;
59998;SDS011;45859;51.378;6.736;2023-02-28T07:03:23;2.90;;;1.80;;
59998;SDS011;45859;51.378;6.736;2023-02-28T07:05:49;4.30;;;2.00;;
59998;SDS011;45859;51.378;6.736;2023-02-28T07:08:16;3.50;;;2.10;;
59998;SDS011;45859;51.378;6.736;2023-02-28T07:10:46;3.13;;;2.83;;
59998;SDS011;45859;51.378;6.736;2023-02-28T07:13:14;5.30;;;2.30;;
59998;SDS011;45859;51.378;6.736;2023-02-28T07:15:52;3.03;;;2.07;;
59998;SDS011;45859;51.378;6.736;2023-02-28T07:18:22;4.40;;;2.13;;
59998;SDS011;45859;51.378;6.736;2023-02-28T07:20:50;1.47;;;1.30;;
59998;SDS011;45859;51.378;6.736;2023-02-28T07:23:17;2.47;;;1.70;;
59998;SDS011;45859;51.378;6.736;2023-02-28T07:25:43;4.03;;;1.93;;
59998;SDS011;45859;51.378;6.736;2023-02-28T07:28:12;3.80;;;2.60;;
59998;SDS011;45859;51.378;6.736;2023-02-28T07:30:41;3.30;;;0.90;;
59998;SDS011;45859;51.378;6.736;2023-02-28T07:33:09;3.30;;;1.90;;
59998;SDS011;45859;51.378;6.736;2023-02-28T07:35:40;6.63;;;1.90;;
59998;SDS011;45859;51.378;6.736;2023-02-28T07:38:09;3.17;;;2.07;;
59998;SDS011;45859;51.378;6.736;2023-02-28T07:40:37;3.10;;;1.83;;
59998;SDS011;45859;51.378;6.736;2023-02-28T07:43:03;2.57;;;2.00;;
59998;SDS011;45859;51.378;6.736;2023-02-28T07:45:31;2.80;;;1.83;;
59998;SDS011;45859;51.378;6.736;2023-02-28T07:47:59;7.73;;;1.87;;
59998;SDS011;45859;51.378;6.736;2023-02-28T07:50:25;2.67;;;1.83;;
59998;SDS011;45859;51.378;6.736;2023-02-28T07:52:56;2.22;;;1.58;;
59998;SDS011;45859;51.378;6.736;2023-02-28T07:55:25;2.93;;;1.77;;
59998;SDS011;45859;51.378;6.736;2023-02-28T07:57:53;2.50;;;1.60;;
59998;SDS011;45859;51.378;6.736;2023-02-28T08:00:19;3.40;;;1.83;;
59998;SDS011;45859;51.378;6.736;2023-02-28T08:02:46;3.63;;;1.87;;
59998;SDS011;45859;51.378;6.736;2023-02-28T08:05:12;3.40;;;1.93;;
59998;SDS011;45859;51.378;6.736;2023-02-28T08:07:38;3.20;;;2.33;;
59998;SDS011;45859;51.378;6.736;2023-02-28T08:10:04;2.03;;;1.60;;
59998;SDS011;45859;51.378;6.736;2023-02-28T08:12:31;3.67;;;3.10;;
59998;SDS011;45859;51.378;6.736;2023-02-28T08:15:00;3.67;;;3.13;;
59998;SDS011;45859;51.378;6.736;2023-02-28T08:17:27;5.63;;;2.10;;
59998;SDS011;45859;51.378;6.736;2023-02-28T08:22:26;3.63;;;2.83;;
59998;SDS011;45859;51.378;6.736;2023-02-28T08:24:52;4.37;;;3.40;;
59998;SDS011;45859;51.378;6.736;2023-02-28T08:27:21;4.27;;;3.20;;
59998;SDS011;45859;51.378;6.736;2023-02-28T08:29:47;3.73;;;2.30;;
59998;SDS011;45859;51.378;6.736;2023-02-28T08:32:16;5.83;;;3.73;;
59998;SDS011;45859;51.378;6.736;2023-02-28T08:34:48;4.17;;;3.50;;
59998;SDS011;45859;51.378;6.736;2023-02-28T08:37:14;5.10;;;3.30;;
59998;SDS011;45859;51.378;6.736;2023-02-28T08:39:41;5.40;;;3.10;;
59998;SDS011;45859;51.378;6.736;2023-02-28T08:42:06;3.80;;;3.20;;
59998;SDS011;45859;51.378;6.736;2023-02-28T08:44:35;4.53;;;3.30;;
59998;SDS011;45859;51.378;6.736;2023-02-28T08:47:02;6.53;;;3.00;;
59998;SDS011;45859;51.378;6.736;2023-02-28T08:49:29;4.60;;;3.03;;
59998;SDS011;45859;51.378;6.736;2023-02-28T08:51:55;4.53;;;3.37;;
59998;SDS011;45859;51.378;6.736;2023-02-28T08:54:22;6.70;;;3.30;;
59998;SDS011;45859;51.378;6.736;2023-02-28T08:56:56;3.63;;;2.43;;
59998;SDS011;45859;51.378;6.736;2023-02-28T08:59:22;2.80;;;2.43;;
59998;SDS011;45859;51.378;6.736;2023-02-28T09:01:47;2.30;;;2.10;;
59998;SDS011;45859;51.378;6.736;2023-02-28T09:04:13;5.43;;;2.63;;
59998;SDS011;45859;51.378;6.736;2023-02-28T09:06:39;2.97;;;2.40;;
59998;SDS011;45859;51.378;6.736;2023-02-28T09:09:05;3.30;;;2.20;;
59998;SDS011;45859;51.378;6.736;2023-02-28T09:11:32;3.60;;;2.50;;
59998;SDS011;45859;51.378;6.736;2023-02-28T09:13:59;4.03;;;2.40;;
59998;SDS011;45859;51.378;6.736;2023-02-28T09:16:26;4.20;;;2.50;;
59998;SDS011;45859;51.378;6.736;2023-02-28T09:18:51;2.83;;;2.43;;
59998;SDS011;45859;51.378;6.736;2023-02-28T09:21:18;3.53;;;2.67;;
59998;SDS011;45859;51.378;6.736;2023-02-28T09:23:44;4.53;;;2.63;;
59998;SDS011;45859;51.378;6.736;2023-02-28T09:26:15;4.27;;;2.40;;
59998;SDS011;45859;51.378;6.736;2023-02-28T09:28:43;2.67;;;2.43;;
59998;SDS011;45859;51.378;6.736;2023-02-28T09:31:13;2.57;;;1.50;;
59998;SDS011;45859;51.378;6.736;2023-02-28T09:33:40;0.90;;;0.77;;
59998;SDS011;45859;51.378;6.736;2023-02-28T09:36:06;1.63;;;1.43;;
59998;SDS011;45859;51.378;6.736;2023-02-28T09:38:32;3.87;;;0.93;;
59998;SDS011;45859;51.378;6.736;2023-02-28T09:40:59;2.07;;;1.13;;
59998;SDS011;45859;51.378;6.736;2023-02-28T09:43:34;1.93;;;1.40;;
59998;SDS011;45859;51.378;6.736;2023-02-28T09:46:09;1.00;;;0.77;;
59998;SDS011;45859;51.378;6.736;2023-02-28T09:48:59;2.20;;;1.33;;
59998;SDS011;45859;51.378;6.736;2023-02-28T09:51:37;4.65;;;1.13;;
59998;SDS011;45859;51.378;6.736;2023-02-28T09:54:06;2.13;;;1.30;;
59998;SDS011;45859;51.378;6.736;2023-02-28T09:56:37;1.40;;;0.77;;
59998;SDS011;45859;51.378;6.736;2023-02-28T10:06:53;1.63;;;1.13;;
59998;SDS011;45859;51.378;6.736;2023-02-28T10:09:21;2.90;;;1.53;;
59998;SDS011;45859;51.378;6.736;2023-02-28T10:11:50;1.60;;;1.02;;
59998;SDS011;45859;51.378;6.736;2023-02-28T10:14:19;4.73;;;1.40;;
59998;SDS011;45859;51.378;6.736;2023-02-28T10:16:48;1.60;;;1.00;;
59998;SDS011;45859;51.378;6.736;2023-02-28T10:22:22;2.53;;;1.57;;
59998;SDS011;45859;51.378;6.736;2023-02-28T10:24:54;2.10;;;1.20;;
59998;SDS011;45859;51.378;6.736;2023-02-28T10:27:29;1.23;;;1.00;;
59998;SDS011;45859;51.378;6.736;2023-02-28T10:29:57;1.70;;;0.90;;
59998;SDS011;45859;51.378;6.736;2023-02-28T10:32:35;2.63;;;0.90;;
59998;SDS011;45859;51.378;6.736;2023-02-28T10:37:37;2.13;;;0.73;;
59998;SDS011;45859;51.378;6.736;2023-02-28T10:40:04;0.90;;;0.70;;
59998;SDS011;45859;51.378;6.736;2023-02-28T10:42:31;1.70;;;1.17;;
59998;SDS011;45859;51.378;6.736;2023-02-28T10:50:31;0.63;;;0.63;;
59998;SDS011;45859;51.378;6.736;2023-02-28T10:55:58;2.70;;;1.33;;
59998;SDS011;45859;51.378;6.736;2023-02-28T11:01:15;1.40;;;0.83;;
59998;SDS011;45859;51.378;6.736;2023-02-28T11:03:46;3.57;;;1.00;;
59998;SDS011;45859;51.378;6.736;2023-02-28T11:06:20;0.73;;;0.60;;
59998;SDS011;45859;51.378;6.736;2023-02-28T11:08:55;1.53;;;0.80;;
59998;SDS011;45859;51.378;6.736;2023-02-28T11:11:24;2.03;;;1.43;;
59998;SDS011;45859;51.378;6.736;2023-02-28T11:13:57;3.33;;;0.60;;
59998;SDS011;45859;51.378;6.736;2023-02-28T11:16:36;2.17;;;1.23;;
59998;SDS011;45859;51.378;6.736;2023-02-28T11:19:03;1.07;;;0.60;;
59998;SDS011;45859;51.378;6.736;2023-02-28T11:21:35;2.37;;;0.97;;
59998;SDS011;45859;51.378;6.736;2023-02-28T11:26:55;2.35;;;0.90;;
59998;SDS011;45859;51.378;6.736;2023-02-28T11:29:23;1.93;;;1.00;;
59998;SDS011;45859;51.378;6.736;2023-02-28T11:34:35;1.40;;;1.00;;
59998;SDS011;45859;51.378;6.736;2023-02-28T11:37:02;1.10;;;0.90;;
59998;SDS011;45859;51.378;6.736;2023-02-28T11:39:30;4.17;;;1.77;;
59998;SDS011;45859;51.378;6.736;2023-02-28T11:45:17;1.07;;;0.90;;
59998;SDS011;45859;51.378;6.736;2023-02-28T11:52:52;1.07;;;0.47;;
59998;SDS011;45859;51.378;6.736;2023-02-28T11:55:31;1.20;;;0.90;;
59998;SDS011;45859;51.378;6.736;2023-02-28T12:06:01;2.07;;;0.80;;
59998;SDS011;45859;51.378;6.736;2023-02-28T12:11:06;1.00;;;0.60;;
59998;SDS011;45859;51.378;6.736;2023-02-28T12:18:53;0.77;;;0.50;;
59998;SDS011;45859;51.378;6.736;2023-02-28T12:26:44;1.60;;;1.30;;
59998;SDS011;45859;51.378;6.736;2023-02-28T12:29:24;1.97;;;1.10;;
59998;SDS011;45859;51.378;6.736;2023-02-28T12:31:58;1.93;;;1.07;;
59998;SDS011;45859;51.378;6.736;2023-02-28T12:35:28;1.55;;;1.23;;
59998;SDS011;45859;51.378;6.736;2023-02-28T12:40:10;3.07;;;1.00;;
59998;SDS011;45859;51.378;6.736;2023-02-28T12:42:42;3.23;;;1.27;;
59998;SDS011;45859;51.378;6.736;2023-02-28T12:45:27;2.22;;;0.95;;
59998;SDS011;45859;51.378;6.736;2023-02-28T12:48:06;3.97;;;1.00;;
59998;SDS011;45859;51.378;6.736;2023-02-28T12:50:35;1.30;;;0.98;;
59998;SDS011;45859;51.378;6.736;2023-02-28T12:53:03;0.97;;;0.70;;
59998;SDS011;45859;51.378;6.736;2023-02-28T12:56:13;4.32;;;1.23;;
59998;SDS011;45859;51.378;6.736;2023-02-28T13:06:55;1.47;;;1.10;;
59998;SDS011;45859;51.378;6.736;2023-02-28T13:09:37;2.07;;;1.23;;
59998;SDS011;45859;51.378;6.736;2023-02-28T13:12:14;1.17;;;0.70;;
59998;SDS011;45859;51.378;6.736;2023-02-28T13:14:41;2.10;;;1.27;;
59998;SDS011;45859;51.378;6.736;2023-02-28T13:19:58;2.97;;;1.30;;
59998;SDS011;45859;51.378;6.736;2023-02-28T13:22:37;2.07;;;1.40;;
59998;SDS011;45859;51.378;6.736;2023-02-28T13:25:50;1.80;;;1.33;;
59998;SDS011;45859;51.378;6.736;2023-02-28T13:27:53;2.73;;;1.63;;
59998;SDS011;45859;51.378;6.736;2023-02-28T13:35:45;1.90;;;1.30;;
59998;SDS011;45859;51.378;6.736;2023-02-28T13:38:14;4.13;;;1.27;;
59998;SDS011;45859;51.378;6.736;2023-02-28T13:40:42;2.20;;;1.37;;
59998;SDS011;45859;51.378;6.736;2023-02-28T13:43:08;2.43;;;1.90;;
59998;SDS011;45859;51.378;6.736;2023-02-28T13:45:34;1.77;;;1.03;;
59998;SDS011;45859;51.378;6.736;2023-02-28T13:48:15;4.20;;;1.38;;
59998;SDS011;45859;51.378;6.736;2023-02-28T13:50:47;1.77;;;1.10;;
59998;SDS011;45859;51.378;6.736;2023-02-28T14:04:12;3.10;;;1.43;;
59998;SDS011;45859;51.378;6.736;2023-02-28T14:06:58;2.03;;;1.40;;
59998;SDS011;45859;51.378;6.736;2023-02-28T14:09:33;1.60;;;1.20;;
59998;SDS011;45859;51.378;6.736;2023-02-28T14:15:04;2.60;;;1.00;;
59998;SDS011;45859;51.378;6.736;2023-02-28T14:17:53;2.83;;;1.80;;
59998;SDS011;45859;51.378;6.736;2023-02-28T14:20:20;5.38;;;1.63;;
59998;SDS011;45859;51.378;6.736;2023-02-28T14:23:23;2.40;;;1.73;;
59998;SDS011;45859;51.378;6.736;2023-02-28T14:31:47;2.63;;;1.52;;
59998;SDS011;45859;51.378;6.736;2023-02-28T14:34:36;1.73;;;1.40;;
59998;SDS011;45859;51.378;6.736;2023-02-28T14:37:32;2.43;;;1.77;;
59998;SDS011;45859;51.378;6.736;2023-02-28T14:40:02;3.03;;;1.40;;
59998;SDS011;45859;51.378;6.736;2023-02-28T14:42:30;4.17;;;2.10;;
59998;SDS011;45859;51.378;6.736;2023-02-28T14:44:58;3.83;;;1.90;;
59998;SDS011;45859;51.378;6.736;2023-02-28T14:47:26;2.10;;;1.80;;
59998;SDS011;45859;51.378;6.736;2023-02-28T14:49:57;2.17;;;1.70;;
59998;SDS011;45859;51.378;6.736;2023-02-28T14:52:24;1.90;;;1.43;;
59998;SDS011;45859;51.378;6.736;2023-02-28T14:54:54;3.78;;;2.53;;
59998;SDS011;45859;51.378;6.736;2023-02-28T14:57:23;3.80;;;2.57;;
59998;SDS011;45859;51.378;6.736;2023-02-28T15:02:51;3.13;;;2.08;;
59998;SDS011;45859;51.378;6.736;2023-02-28T15:05:31;2.53;;;1.53;;
59998;SDS011;45859;51.378;6.736;2023-02-28T15:08:03;3.92;;;2.83;;
59998;SDS011;45859;51.378;6.736;2023-02-28T15:10:37;2.47;;;1.90;;
59998;SDS011;45859;51.378;6.736;2023-02-28T15:13:05;4.50;;;2.70;;
59998;SDS011;45859;51.378;6.736;2023-02-28T15:15:43;2.97;;;2.20;;
59998;SDS011;45859;51.378;6.736;2023-02-28T15:21:08;2.73;;;1.80;;
59998;SDS011;45859;51.378;6.736;2023-02-28T15:23:38;2.73;;;1.97;;
59998;SDS011;45859;51.378;6.736;2023-02-28T15:26:09;4.28;;;1.90;;
59998;SDS011;45859;51.378;6.736;2023-02-28T15:28:41;5.13;;;2.93;;
59998;SDS011;45859;51.378;6.736;2023-02-28T15:31:22;5.93;;;2.67;;
59998;SDS011;45859;51.378;6.736;2023-02-28T15:33:56;4.27;;;3.10;;
59998;SDS011;45859;51.378;6.736;2023-02-28T15:36:28;4.10;;;2.30;;
59998;SDS011;45859;51.378;6.736;2023-02-28T15:38:58;4.00;;;2.50;;
59998;SDS011;45859;51.378;6.736;2023-02-28T15:41:29;4.60;;;3.00;;
59998;SDS011;45859;51.378;6.736;2023-02-28T15:44:15;3.43;;;1.97;;
59998;SDS011;45859;51.378;6.736;2023-02-28T15:46:59;2.90;;;2.13;;
59998;SDS011;45859;51.378;6.736;2023-02-28T15:49:28;4.20;;;2.33;;
59998;SDS011;45859;51.378;6.736;2023-02-28T15:51:58;3.23;;;2.60;;
59998;SDS011;45859;51.378;6.736;2023-02-28T15:54:27;2.33;;;1.67;;
59998;SDS011;45859;51.378;6.736;2023-02-28T15:59:22;2.57;;;2.20;;
59998;SDS011;45859;51.378;6.736;2023-02-28T16:07:40;2.87;;;2.00;;
59998;SDS011;45859;51.378;6.736;2023-02-28T16:10:09;2.90;;;2.33;;
59998;SDS011;45859;51.378;6.736;2023-02-28T16:12:37;4.50;;;2.37;;
59998;SDS011;45859;51.378;6.736;2023-02-28T16:15:23;3.00;;;2.33;;
59998;SDS011;45859;51.378;6.736;2023-02-28T16:17:51;2.03;;;1.80;;
59998;SDS011;45859;51.378;6.736;2023-02-28T16:22:51;1.83;;;1.13;;
59998;SDS011;45859;51.378;6.736;2023-02-28T16:25:19;1.93;;;1.77;;
59998;SDS011;45859;51.378;6.736;2023-02-28T16:27:48;2.22;;;1.88;;
59998;SDS011;45859;51.378;6.736;2023-02-28T16:30:16;4.27;;;2.43;;
59998;SDS011;45859;51.378;6.736;2023-02-28T16:32:50;4.40;;;2.30;;
59998;SDS011;45859;51.378;6.736;2023-02-28T16:35:17;2.93;;;2.07;;
59998;SDS011;45859;51.378;6.736;2023-02-28T16:37:44;3.13;;;2.10;;
59998;SDS011;45859;51.378;6.736;2023-02-28T16:42:43;1.70;;;1.43;;
59998;SDS011;45859;51.378;6.736;2023-02-28T16:45:17;4.10;;;2.37;;
59998;SDS011;45859;51.378;6.736;2023-02-28T16:47:46;3.57;;;2.20;;
59998;SDS011;45859;51.378;6.736;2023-02-28T16:50:13;4.90;;;2.73;;
59998;SDS011;45859;51.378;6.736;2023-02-28T16:52:43;3.17;;;2.40;;
59998;SDS011;45859;51.378;6.736;2023-02-28T16:55:09;3.13;;;2.47;;
59998;SDS011;45859;51.378;6.736;2023-02-28T16:57:35;4.07;;;2.37;;
59998;SDS011;45859;51.378;6.736;2023-02-28T17:00:01;3.93;;;2.70;;
59998;SDS011;45859;51.378;6.736;2023-02-28T17:02:27;4.60;;;2.07;;
59998;SDS011;45859;51.378;6.736;2023-02-28T17:04:53;3.10;;;1.93;;
59998;SDS011;45859;51.378;6.736;2023-02-28T17:07:18;3.33;;;2.43;;
59998;SDS011;45859;51.378;6.736;2023-02-28T17:09:44;3.43;;;1.83;;
59998;SDS011;45859;51.378;6.736;2023-02-28T17:12:10;3.70;;;2.30;;
59998;SDS011;45859;51.378;6.736;2023-02-28T17:14:36;2.60;;;2.10;;
59998;SDS011;45859;51.378;6.736;2023-02-28T17:17:04;11.00;;;3.70;;
59998;SDS011;45859;51.378;6.736;2023-02-28T17:19:30;10.07;;;4.33;;
59998;SDS011;45859;51.378;6.736;2023-02-28T17:21:56;6.70;;;3.60;;
59998;SDS011;45859;51.378;6.736;2023-02-28T17:24:22;6.70;;;3.77;;
59998;SDS011;45859;51.378;6.736;2023-02-28T17:26:47;9.57;;;4.57;;
59998;SDS011;45859;51.378;6.736;2023-02-28T17:29:18;5.20;;;2.80;;
59998;SDS011;45859;51.378;6.736;2023-02-28T17:31:45;6.90;;;3.13;;
59998;SDS011;45859;51.378;6.736;2023-02-28T17:34:11;2.40;;;2.10;;
59998;SDS011;45859;51.378;6.736;2023-02-28T17:36:43;6.37;;;3.70;;
59998;SDS011;45859;51.378;6.736;2023-02-28T17:39:10;5.00;;;2.67;;
59998;SDS011;45859;51.378;6.736;2023-02-28T17:41:39;6.47;;;3.13;;
59998;SDS011;45859;51.378;6.736;2023-02-28T17:44:08;9.60;;;4.57;;